Time;durP1;ratioP1;P1;durP2;ratioP2;P2;SDS_P1;SDS_P2;PMS_P1;PMS_P2;Temp;Humidity;BMP_temperature;BMP_pressure;BME280_temperature;BME280_humidity;BME280_pressure;Samples;Min_cycle;Max_cycle;Signal;HPM_P1;HPM_P2
2022/10/29 00:01:08;;;;;;;43.50;23.20;;;14.40;77.00;;;;;;5085771;28;21509;-78
2022/10/29 00:03:37;;;;;;;42.90;22.57;;;14.40;77.10;;;;;;5083720;28;20196;-78
2022/10/29 00:06:07;;;;;;;43.17;23.17;;;14.40;77.10;;;;;;5088189;28;20220;-78
2022/10/29 00:08:38;;;;;;;46.13;22.97;;;14.40;77.10;;;;;;5089647;28;20190;-79
2022/10/29 00:11:09;;;;;;;41.97;21.73;;;14.30;77.10;;;;;;5087735;28;20213;-78
2022/10/29 00:13:37;;;;;;;34.57;20.30;;;14.30;77.20;;;;;;5089831;28;20688;-78
2022/10/29 00:16:07;;;;;;;44.90;19.63;;;14.30;77.20;;;;;;5086000;28;20278;-79
2022/10/29 00:18:36;;;;;;;33.33;18.37;;;14.30;77.30;;;;;;5089223;28;20251;-80
2022/10/29 00:21:06;;;;;;;36.00;17.70;;;14.20;77.30;;;;;;5088604;28;20220;-77
2022/10/29 00:23:34;;;;;;;36.90;19.70;;;14.20;77.30;;;;;;5092322;28;20185;-78
2022/10/29 00:26:05;;;;;;;35.47;18.60;;;14.30;77.60;;;;;;5085820;28;20212;-78
2022/10/29 00:28:34;;;;;;;32.60;17.03;;;14.20;77.60;;;;;;5087587;28;20617;-78
2022/10/29 00:31:04;;;;;;;32.57;17.60;;;14.20;77.80;;;;;;5087131;28;20217;-78
2022/10/29 00:33:33;;;;;;;38.80;18.23;;;14.20;77.80;;;;;;5087816;28;20254;-78
2022/10/29 00:36:03;;;;;;;31.57;18.43;;;14.20;77.80;;;;;;5087697;28;20293;-78
2022/10/29 00:38:33;;;;;;;28.77;17.37;;;14.20;77.90;;;;;;5087439;28;20193;-79
2022/10/29 00:41:02;;;;;;;34.03;18.57;;;14.10;78.00;;;;;;5087655;28;20715;-79
2022/10/29 00:43:34;;;;;;;33.50;18.20;;;14.10;78.00;;;;;;5083126;28;20243;-79
2022/10/29 00:46:07;;;;;;;36.17;17.80;;;14.00;78.00;;;;;;5084460;28;20255;-78
2022/10/29 00:48:39;;;;;;;32.10;17.43;;;14.00;78.00;;;;;;5085786;28;20205;-79
2022/10/29 00:51:10;;;;;;;34.00;18.83;;;14.00;78.00;;;;;;5085311;28;20229;-78
2022/10/29 00:53:42;;;;;;;37.40;19.10;;;14.00;78.10;;;;;;5085178;28;20247;-78
2022/10/29 00:56:11;;;;;;;36.00;18.20;;;14.00;78.10;;;;;;5088268;28;20190;-78
2022/10/29 00:58:41;;;;;;;40.93;19.40;;;14.00;78.20;;;;;;5087426;28;20229;-78
2022/10/29 01:01:09;;;;;;;32.90;18.73;;;14.00;78.30;;;;;;5086197;28;20201;-78
2022/10/29 01:03:38;;;;;;;38.70;19.90;;;14.00;78.30;;;;;;5086355;28;20190;-79
2022/10/29 01:06:08;;;;;;;34.20;19.17;;;14.00;78.30;;;;;;5088699;28;20711;-78
2022/10/29 01:08:36;;;;;;;40.57;20.77;;;13.90;78.30;;;;;;5088373;28;20280;-78
2022/10/29 01:11:13;;;;;;;37.30;19.93;;;13.90;79.20;;;;;;5086641;28;20248;-78
2022/10/29 01:13:50;;;;;;;41.53;21.10;;;13.90;78.40;;;;;;5086362;28;20220;-77
2022/10/29 01:16:29;;;;;;;41.90;20.73;;;13.90;78.50;;;;;;5085514;28;20219;-78
2022/10/29 01:19:09;;;;;;;43.60;22.50;;;13.80;78.60;;;;;;5085030;28;20213;-78
2022/10/29 01:21:41;;;;;;;40.20;21.27;;;13.80;78.60;;;;;;5084244;28;20243;-79
2022/10/29 01:24:35;;;;;;;37.53;21.00;;;13.70;78.60;;;;;;5087683;28;20189;-78
2022/10/29 01:27:35;;;;;;;37.10;21.00;;;13.70;78.60;;;;;;5076839;28;20693;-78
2022/10/29 01:30:18;;;;;;;38.90;21.10;;;13.70;78.70;;;;;;5084990;28;20599;-78
2022/10/29 01:33:00;;;;;;;41.63;21.00;;;13.70;78.70;;;;;;5088354;28;20249;-78
2022/10/29 01:35:37;;;;;;;39.40;19.97;;;13.70;78.70;;;;;;5088029;28;20258;-79
2022/10/29 01:38:19;;;;;;;40.23;19.90;;;13.60;78.80;;;;;;5080132;28;20190;-78
2022/10/29 01:40:55;;;;;;;39.07;19.33;;;13.60;78.80;;;;;;5086035;28;20569;-78
2022/10/29 01:43:31;;;;;;;41.27;20.57;;;13.60;78.90;;;;;;5084239;28;20220;-78
2022/10/29 01:46:06;;;;;;;33.00;19.97;;;13.60;79.00;;;;;;5078682;28;20348;-78
2022/10/29 01:48:42;;;;;;;35.57;20.30;;;13.60;79.10;;;;;;5090576;28;20209;-78
2022/10/29 01:51:18;;;;;;;32.03;18.83;;;13.60;79.20;;;;;;5084556;28;20725;-79
2022/10/29 01:53:46;;;;;;;35.03;20.13;;;13.50;79.10;;;;;;5088419;28;20193;-79
2022/10/29 01:56:15;;;;;;;35.50;18.77;;;13.50;79.00;;;;;;5087585;28;20221;-79
2022/10/29 01:58:46;;;;;;;29.47;17.87;;;13.50;79.10;;;;;;5087782;28;20218;-79
2022/10/29 02:01:35;;;;;;;37.20;19.43;;;13.50;79.10;;;;;;5086701;28;20221;-79
2022/10/29 02:04:22;;;;;;;35.83;18.47;;;13.50;79.10;;;;;;5087084;28;20194;-78
2022/10/29 02:06:59;;;;;;;43.40;19.63;;;13.50;79.10;;;;;;5088885;28;20598;-78
2022/10/29 02:09:33;;;;;;;32.67;19.03;;;13.50;79.00;;;;;;5087248;28;20247;-79
2022/10/29 02:12:08;;;;;;;41.53;19.37;;;13.40;78.80;;;;;;5086416;28;20298;-78
2022/10/29 02:14:40;;;;;;;36.50;19.83;;;13.40;79.70;;;;;;5086529;28;20224;-78
2022/10/29 02:17:09;;;;;;;31.93;18.20;;;13.40;78.90;;;;;;5093631;28;20223;-78
2022/10/29 02:19:38;;;;;;;36.03;18.90;;;13.40;79.00;;;;;;5089116;28;20197;-78
2022/10/29 02:22:07;;;;;;;33.50;19.47;;;13.40;79.10;;;;;;5084500;28;20622;-79
2022/10/29 02:24:35;;;;;;;37.03;19.80;;;13.40;80.00;;;;;;5089187;28;20191;-79
2022/10/29 02:27:03;;;;;;;36.77;19.80;;;13.40;79.30;;;;;;5088806;28;20251;-79
2022/10/29 02:29:32;;;;;;;34.83;19.03;;;13.30;79.40;;;;;;5091593;28;20637;-79
2022/10/29 02:32:00;;;;;;;42.67;19.73;;;13.30;79.50;;;;;;5084460;28;20214;-79
2022/10/29 02:34:28;;;;;;;32.33;18.17;;;13.30;79.60;;;;;;5087549;28;20213;-79
2022/10/29 02:36:58;;;;;;;32.17;18.70;;;13.30;79.80;;;;;;5092254;28;20609;-79
2022/10/29 02:39:26;;;;;;;40.67;18.67;;;13.20;79.80;;;;;;5096025;28;20597;-79
2022/10/29 02:41:54;;;;;;;31.57;17.70;;;13.20;79.80;;;;;;5088773;28;20247;-79
2022/10/29 02:44:23;;;;;;;35.17;18.60;;;13.20;79.80;;;;;;5090171;28;20190;-79
2022/10/29 02:46:51;;;;;;;33.53;18.30;;;13.30;79.90;;;;;;5092115;28;20317;-78
2022/10/29 02:49:19;;;;;;;32.43;17.57;;;13.20;79.90;;;;;;5090157;28;20230;-78
2022/10/29 02:51:49;;;;;;;38.67;18.00;;;13.20;79.90;;;;;;5091084;28;20681;-78
2022/10/29 02:54:18;;;;;;;38.87;19.50;;;13.20;79.90;;;;;;5090105;28;20240;-78
2022/10/29 02:56:47;;;;;;;40.20;19.00;;;13.30;80.10;;;;;;5089511;28;20645;-78
2022/10/29 02:59:15;;;;;;;32.70;19.03;;;13.30;80.20;;;;;;5087001;28;20191;-78
2022/10/29 03:01:50;;;;;;;35.17;19.13;;;13.30;80.20;;;;;;5089514;28;20197;-78
2022/10/29 03:04:19;;;;;;;42.27;19.23;;;13.30;80.10;;;;;;5092830;28;20206;-78
2022/10/29 03:06:47;;;;;;;34.50;19.57;;;13.30;80.20;;;;;;5089185;28;20262;-78
2022/10/29 03:09:15;;;;;;;35.93;18.50;;;13.30;80.20;;;;;;5090267;28;20715;-78
2022/10/29 03:11:45;;;;;;;31.00;18.60;;;13.30;80.20;;;;;;5090775;28;20638;-78
2022/10/29 03:14:13;;;;;;;30.70;17.87;;;13.30;80.30;;;;;;5091742;28;20202;-78
2022/10/29 03:16:42;;;;;;;36.63;18.30;;;13.30;80.40;;;;;;5084030;28;20573;-78
2022/10/29 03:19:10;;;;;;;36.13;19.60;;;13.20;80.30;;;;;;5085360;28;20240;-78
2022/10/29 03:21:38;;;;;;;35.80;18.50;;;13.20;80.30;;;;;;5086869;28;20276;-78
2022/10/29 03:24:07;;;;;;;35.43;18.27;;;13.20;80.40;;;;;;5091364;28;20251;-78
2022/10/29 03:26:35;;;;;;;46.27;20.43;;;13.20;80.50;;;;;;5087589;28;20240;-78
2022/10/29 03:29:05;;;;;;;33.47;18.03;;;13.20;80.40;;;;;;5090350;28;20574;-78
2022/10/29 03:31:33;;;;;;;31.47;18.73;;;13.20;80.40;;;;;;5097093;28;20213;-78
2022/10/29 03:34:01;;;;;;;34.40;18.97;;;13.10;80.30;;;;;;5087540;28;20214;-78
2022/10/29 03:36:30;;;;;;;35.73;18.77;;;13.10;80.30;;;;;;5090723;28;20294;-80
2022/10/29 03:38:58;;;;;;;36.00;18.17;;;13.10;80.40;;;;;;5088930;28;20243;-79
2022/10/29 03:41:26;;;;;;;33.37;17.17;;;13.10;80.30;;;;;;5085706;28;20247;-77
2022/10/29 03:43:55;;;;;;;31.20;17.07;;;13.10;80.40;;;;;;5085784;28;20634;-79
2022/10/29 03:46:29;;;;;;;32.60;17.27;;;13.10;80.40;;;;;;5088790;28;20646;-77
2022/10/29 03:48:57;;;;;;;33.50;18.33;;;13.00;80.50;;;;;;5089332;28;20217;-77
2022/10/29 03:51:26;;;;;;;32.20;17.00;;;13.00;80.40;;;;;;5089495;28;20762;-78
2022/10/29 03:53:54;;;;;;;36.80;18.73;;;13.00;80.40;;;;;;5091036;28;20703;-77
2022/10/29 03:56:22;;;;;;;36.50;19.00;;;13.00;80.50;;;;;;5087707;28;20225;-78
2022/10/29 03:58:50;;;;;;;31.03;17.90;;;13.00;80.50;;;;;;5088190;28;20230;-77
2022/10/29 04:01:19;;;;;;;30.80;17.67;;;13.00;80.60;;;;;;5089428;28;20217;-78
2022/10/29 04:03:49;;;;;;;38.47;17.97;;;12.90;80.50;;;;;;5090799;28;20197;-78
2022/10/29 04:06:17;;;;;;;30.73;15.93;;;12.90;80.60;;;;;;5084324;28;20628;-78
2022/10/29 04:08:45;;;;;;;31.93;15.97;;;12.90;80.70;;;;;;5087865;28;20221;-78
2022/10/29 04:11:14;;;;;;;33.03;16.90;;;12.90;80.80;;;;;;5091463;28;20243;-78
2022/10/29 04:13:42;;;;;;;29.97;16.43;;;13.00;80.90;;;;;;5081713;28;20806;-78
2022/10/29 04:16:11;;;;;;;29.63;16.27;;;13.00;80.90;;;;;;5096468;28;20197;-78
2022/10/29 04:18:39;;;;;;;28.67;15.53;;;13.00;80.90;;;;;;5085102;28;20719;-78
2022/10/29 04:21:09;;;;;;;24.90;15.50;;;13.00;80.90;;;;;;5085629;28;20189;-78
2022/10/29 04:23:57;;;;;;;28.30;15.50;;;13.00;80.90;;;;;;5087239;28;20631;-78
2022/10/29 04:26:45;;;;;;;30.83;15.10;;;13.00;80.90;;;;;;5088549;28;20204;-78
2022/10/29 04:29:34;;;;;;;28.63;15.53;;;13.00;81.20;;;;;;5085825;28;20204;-78
2022/10/29 04:32:02;;;;;;;30.90;15.07;;;13.00;81.10;;;;;;5090939;28;20189;-78
2022/10/29 04:34:30;;;;;;;32.73;15.47;;;13.00;81.10;;;;;;5094663;28;20248;-78
2022/10/29 04:37:00;;;;;;;28.70;14.80;;;13.00;81.10;;;;;;5087497;28;20190;-78
2022/10/29 04:39:28;;;;;;;29.67;15.03;;;13.00;81.10;;;;;;5089389;28;20193;-77
2022/10/29 04:41:56;;;;;;;31.23;15.40;;;13.00;81.20;;;;;;5080668;28;20255;-77
2022/10/29 04:44:25;;;;;;;27.17;15.17;;;13.00;81.10;;;;;;5093107;28;20702;-78
2022/10/29 04:46:53;;;;;;;27.23;15.47;;;13.00;81.10;;;;;;5089685;28;20235;-79
2022/10/29 04:49:21;;;;;;;27.53;15.60;;;13.00;81.10;;;;;;5085747;28;20236;-79
2022/10/29 04:51:50;;;;;;;28.37;16.20;;;13.00;81.20;;;;;;5085709;28;21348;-79
2022/10/29 04:54:19;;;;;;;31.77;15.57;;;13.00;81.20;;;;;;5089747;28;20675;-79
2022/10/29 04:56:48;;;;;;;28.83;15.40;;;13.00;81.20;;;;;;5090158;28;20539;-78
2022/10/29 04:59:16;;;;;;;24.93;15.37;;;13.00;81.10;;;;;;5084629;28;20570;-78
2022/10/29 05:01:44;;;;;;;29.43;15.33;;;13.00;81.10;;;;;;5083814;28;20182;-78
2022/10/29 05:04:13;;;;;;;29.50;15.37;;;13.00;81.10;;;;;;5087323;28;20246;-78
2022/10/29 05:06:41;;;;;;;28.77;14.57;;;13.00;81.20;;;;;;5087351;28;20190;-78
2022/10/29 05:09:09;;;;;;;27.63;14.57;;;13.00;81.20;;;;;;5082876;28;20225;-78
2022/10/29 05:11:39;;;;;;;34.40;15.87;;;13.00;81.30;;;;;;5087598;28;20196;-78
2022/10/29 05:14:07;;;;;;;24.50;13.93;;;13.00;81.30;;;;;;5088251;28;20272;-78
2022/10/29 05:16:36;;;;;;;29.33;15.63;;;13.00;81.40;;;;;;5080155;28;20190;-78
2022/10/29 05:19:05;;;;;;;29.60;15.77;;;13.00;81.40;;;;;;5084081;28;20715;-78
2022/10/29 05:21:33;;;;;;;33.90;15.53;;;13.00;81.40;;;;;;5080443;28;20201;-79
2022/10/29 05:24:02;;;;;;;25.73;15.03;;;13.10;81.50;;;;;;5084626;28;20243;-78
2022/10/29 05:26:31;;;;;;;34.50;15.23;;;13.10;81.40;;;;;;5089689;28;20189;-79
2022/10/29 05:29:01;;;;;;;30.30;14.40;;;13.10;81.40;;;;;;5083746;28;20251;-79
2022/10/29 05:31:29;;;;;;;29.13;14.87;;;13.10;81.50;;;;;;5087554;28;20258;-78
2022/10/29 05:33:58;;;;;;;27.00;15.00;;;13.10;81.60;;;;;;5087653;28;20612;-78
2022/10/29 05:36:26;;;;;;;33.30;15.57;;;13.10;81.60;;;;;;5082146;28;20182;-78
2022/10/29 05:38:54;;;;;;;33.20;16.63;;;13.10;81.60;;;;;;5089717;28;20251;-78
2022/10/29 05:41:22;;;;;;;32.83;14.83;;;13.20;81.60;;;;;;5087237;28;20221;-79
2022/10/29 05:43:51;;;;;;;26.13;15.00;;;13.20;81.60;;;;;;5081198;28;20227;-79
2022/10/29 05:46:20;;;;;;;27.57;15.57;;;13.20;81.70;;;;;;5089320;28;20280;-78
2022/10/29 05:48:49;;;;;;;24.53;13.63;;;13.20;81.70;;;;;;5093247;28;20213;-78
2022/10/29 05:51:17;;;;;;;26.73;14.70;;;13.20;81.60;;;;;;5094866;28;20240;-77
2022/10/29 05:53:45;;;;;;;32.60;16.23;;;13.20;81.80;;;;;;5089259;28;20308;-78
2022/10/29 05:56:13;;;;;;;34.87;16.47;;;13.20;82.00;;;;;;5087797;28;20190;-79
2022/10/29 05:58:42;;;;;;;32.07;15.60;;;13.20;83.00;;;;;;5092670;28;20251;-78
2022/10/29 06:01:11;;;;;;;31.93;16.10;;;13.20;82.20;;;;;;5088214;28;20190;-78
2022/10/29 06:03:40;;;;;;;30.53;16.07;;;13.20;82.20;;;;;;5090602;28;20661;-79
2022/10/29 06:06:09;;;;;;;32.17;17.27;;;13.30;82.40;;;;;;5090732;28;20196;-79
2022/10/29 06:08:37;;;;;;;33.90;19.43;;;13.30;82.50;;;;;;5094542;28;20185;-79
2022/10/29 06:11:06;;;;;;;32.50;18.33;;;13.30;82.50;;;;;;5086651;28;20268;-80
2022/10/29 06:13:34;;;;;;;33.00;18.43;;;13.40;82.70;;;;;;5090819;28;20248;-78
2022/10/29 06:16:02;;;;;;;36.60;19.80;;;13.40;83.10;;;;;;5086583;28;20186;-79
2022/10/29 06:18:31;;;;;;;36.40;19.27;;;13.40;83.30;;;;;;5092634;28;20194;-78
2022/10/29 06:21:01;;;;;;;35.70;20.70;;;13.50;84.40;;;;;;5089221;28;20221;-78
2022/10/29 06:23:29;;;;;;;38.07;18.40;;;13.50;83.30;;;;;;5091608;28;20190;-79
2022/10/29 06:26:00;;;;;;;33.83;18.23;;;13.60;83.40;;;;;;5090560;28;20209;-78
2022/10/29 06:28:28;;;;;;;31.83;17.93;;;13.60;83.30;;;;;;5091193;28;20229;-78
2022/10/29 06:31:02;;;;;;;30.53;18.53;;;13.70;83.30;;;;;;5038339;28;20190;-77
2022/10/29 06:33:30;;;;;;;34.57;18.47;;;13.70;83.20;;;;;;5092909;28;20197;-76
2022/10/29 06:36:01;;;;;;;33.07;17.97;;;13.80;83.30;;;;;;5091320;28;20190;-78
2022/10/29 06:38:29;;;;;;;35.63;18.17;;;13.90;83.20;;;;;;5090552;28;20205;-78
2022/10/29 06:40:57;;;;;;;32.70;18.43;;;13.90;83.20;;;;;;5095452;28;20262;-78
2022/10/29 06:43:26;;;;;;;34.50;17.90;;;14.00;83.20;;;;;;5092579;28;20199;-78
2022/10/29 06:45:54;;;;;;;30.17;18.40;;;14.10;83.20;;;;;;5086556;28;20239;-78
2022/10/29 06:48:22;;;;;;;40.33;20.13;;;14.10;83.10;;;;;;5101653;28;20214;-77
2022/10/29 06:50:51;;;;;;;31.63;18.17;;;14.20;83.00;;;;;;5111701;28;20213;-76
2022/10/29 06:53:21;;;;;;;38.05;22.48;;;14.30;82.90;;;;;;5090934;28;20864;-76
2022/10/29 06:55:49;;;;;;;39.50;20.90;;;14.40;83.40;;;;;;5086758;28;20213;-76
2022/10/29 06:58:19;;;;;;;39.10;20.47;;;14.40;84.10;;;;;;5090718;28;20232;-78
2022/10/29 07:00:48;;;;;;;37.33;20.67;;;14.50;83.20;;;;;;5094697;28;20194;-76
2022/10/29 07:03:18;;;;;;;41.63;23.50;;;14.60;83.00;;;;;;5090713;28;20415;-78
2022/10/29 07:05:47;;;;;;;38.60;21.57;;;14.70;83.20;;;;;;5089089;28;20194;-76
2022/10/29 07:08:15;;;;;;;41.73;20.37;;;14.80;83.10;;;;;;5101278;28;20186;-78
2022/10/29 07:10:44;;;;;;;32.73;19.47;;;14.80;82.90;;;;;;5092029;28;20189;-77
2022/10/29 07:13:13;;;;;;;31.67;18.87;;;14.90;82.80;;;;;;5086110;28;20252;-77
2022/10/29 07:15:41;;;;;;;43.30;20.17;;;15.00;82.80;;;;;;5093821;28;20275;-78
2022/10/29 07:18:11;;;;;;;30.20;18.87;;;15.00;82.70;;;;;;5091860;28;20243;-77
2022/10/29 07:20:42;;;;;;;30.47;17.93;;;15.10;82.60;;;;;;5093688;28;20198;-78
2022/10/29 07:23:11;;;;;;;28.63;17.37;;;15.20;82.50;;;;;;5094548;28;20680;-78
2022/10/29 07:25:40;;;;;;;31.53;17.00;;;15.30;82.60;;;;;;5097869;28;20219;-77
2022/10/29 07:28:13;;;;;;;33.23;15.83;;;15.40;82.30;;;;;;5091345;28;20281;-77
2022/10/29 07:30:41;;;;;;;27.50;17.27;;;15.50;82.30;;;;;;5091280;28;20655;-78
2022/10/29 07:33:10;;;;;;;33.03;17.63;;;15.50;81.90;;;;;;5090404;28;20255;-77
2022/10/29 07:35:38;;;;;;;28.87;15.03;;;15.60;81.30;;;;;;5085509;28;20249;-78
2022/10/29 07:38:08;;;;;;;24.37;15.23;;;15.60;81.30;;;;;;5092668;28;20190;-76
2022/10/29 07:40:39;;;;;;;31.43;14.70;;;15.80;81.40;;;;;;5089128;28;20976;-76
2022/10/29 07:43:09;;;;;;;38.90;13.80;;;15.80;81.30;;;;;;5090151;28;20185;-77
2022/10/29 07:45:38;;;;;;;23.43;13.50;;;15.90;81.00;;;;;;5087736;28;20298;-79
2022/10/29 07:48:07;;;;;;;24.70;13.90;;;15.90;80.90;;;;;;5093567;28;20221;-78
2022/10/29 07:50:36;;;;;;;25.67;13.50;;;16.10;80.90;;;;;;5081014;28;20225;-78
2022/10/29 07:53:06;;;;;;;26.83;15.70;;;16.10;80.70;;;;;;5092977;28;20221;-78
2022/10/29 07:55:35;;;;;;;30.20;14.17;;;16.20;80.00;;;;;;5087790;28;20818;-79
2022/10/29 07:58:05;;;;;;;22.07;11.93;;;16.30;80.00;;;;;;5092186;28;20198;-80
2022/10/29 08:00:37;;;;;;;25.10;12.63;;;16.30;79.70;;;;;;5089646;28;20217;-78
2022/10/29 08:03:05;;;;;;;35.13;13.33;;;16.40;79.30;;;;;;5090872;28;20405;-76
2022/10/29 08:05:34;;;;;;;23.00;11.97;;;16.40;79.00;;;;;;5089951;28;20193;-78
2022/10/29 08:08:02;;;;;;;21.77;11.07;;;16.50;78.70;;;;;;5089065;28;20246;-76
2022/10/29 08:10:32;;;;;;;18.03;10.60;;;16.60;78.70;;;;;;5088048;28;20193;-76
2022/10/29 08:13:01;;;;;;;22.50;11.13;;;16.60;78.30;;;;;;5090048;28;20219;-75
2022/10/29 08:15:31;;;;;;;23.80;10.13;;;16.70;78.10;;;;;;5091528;28;20256;-77
2022/10/29 08:18:02;;;;;;;27.23;9.47;;;16.80;78.20;;;;;;5093046;28;20263;-75
2022/10/29 08:20:31;;;;;;;20.50;9.50;;;16.90;78.00;;;;;;5092002;28;20658;-76
2022/10/29 08:23:00;;;;;;;27.80;10.10;;;16.90;77.70;;;;;;5091734;28;20225;-75
2022/10/29 08:25:29;;;;;;;21.47;9.53;;;17.00;77.70;;;;;;5106178;28;20193;-75
2022/10/29 08:28:02;;;;;;;16.50;9.37;;;17.10;77.90;;;;;;5093512;28;20239;-75
2022/10/29 08:30:31;;;;;;;24.73;10.97;;;17.20;77.70;;;;;;5103713;28;20194;-75
2022/10/29 08:33:02;;;;;;;19.17;9.10;;;17.20;77.30;;;;;;5092145;28;20221;-74
2022/10/29 08:35:31;;;;;;;17.37;8.70;;;17.30;77.10;;;;;;5090919;28;20674;-77
2022/10/29 08:37:59;;;;;;;18.13;7.93;;;17.40;77.60;;;;;;5092485;28;20595;-76
2022/10/29 08:40:35;;;;;;;21.90;8.50;;;17.50;76.40;;;;;;5092576;28;20190;-75
2022/10/29 08:43:22;;;;;;;14.30;6.17;;;17.60;76.20;;;;;;5103220;28;20241;-76
2022/10/29 08:45:53;;;;;;;13.23;6.50;;;17.70;75.80;;;;;;5077223;28;20236;-75
2022/10/29 08:48:36;;;;;;;16.87;6.37;;;17.70;75.20;;;;;;5092797;28;20646;-75
2022/10/29 08:51:09;;;;;;;14.30;6.40;;;17.80;75.50;;;;;;5092118;28;20652;-75
2022/10/29 08:53:41;;;;;;;19.17;7.07;;;17.90;75.30;;;;;;5098697;28;20194;-74
2022/10/29 08:56:16;;;;;;;15.67;6.33;;;18.00;75.30;;;;;;5096451;28;20634;-77
2022/10/29 08:58:54;;;;;;;11.97;6.17;;;18.10;74.60;;;;;;5096490;28;20220;-77
2022/10/29 09:01:23;;;;;;;14.67;6.60;;;18.20;74.30;;;;;;5091389;28;20189;-75
2022/10/29 09:03:54;;;;;;;13.30;5.93;;;18.20;74.00;;;;;;5100434;28;20198;-75
2022/10/29 09:06:31;;;;;;;12.70;6.03;;;18.40;73.80;;;;;;5092314;28;20194;-75
2022/10/29 09:09:25;;;;;;;14.73;6.43;;;18.40;73.50;;;;;;5093294;28;20186;-76
2022/10/29 09:12:21;;;;;;;14.63;7.27;;;18.50;73.70;;;;;;5080214;28;20289;-75
2022/10/29 09:15:13;;;;;;;16.27;6.60;;;18.60;73.10;;;;;;5089188;28;20228;-75
2022/10/29 09:17:50;;;;;;;14.03;6.50;;;18.70;73.10;;;;;;5091447;28;20247;-75
2022/10/29 09:20:28;;;;;;;14.33;6.30;;;18.80;72.70;;;;;;5092257;28;20194;-75
2022/10/29 09:23:07;;;;;;;16.83;6.80;;;18.80;72.50;;;;;;5094111;28;20575;-74
2022/10/29 09:25:44;;;;;;;13.90;6.20;;;18.90;72.50;;;;;;5092690;28;20229;-76
2022/10/29 09:28:24;;;;;;;13.57;6.10;;;19.00;72.30;;;;;;5094203;28;20243;-75
2022/10/29 09:31:00;;;;;;;15.23;5.97;;;19.10;72.30;;;;;;5091318;28;20186;-75
2022/10/29 09:33:29;;;;;;;13.53;5.40;;;19.10;71.80;;;;;;5091356;28;21146;-74
2022/10/29 09:36:00;;;;;;;10.10;6.23;;;19.20;71.80;;;;;;5096031;28;20229;-76
2022/10/29 09:38:32;;;;;;;9.50;5.43;;;19.30;71.20;;;;;;5093259;28;20689;-75
2022/10/29 09:41:02;;;;;;;12.47;5.47;;;19.40;71.30;;;;;;5092835;28;20521;-75
2022/10/29 09:43:43;;;;;;;13.10;6.83;;;19.50;70.70;;;;;;5081323;28;20225;-76
2022/10/29 09:46:21;;;;;;;17.03;5.30;;;19.50;70.70;;;;;;5091453;28;20284;-76
2022/10/29 09:48:54;;;;;;;11.05;5.13;;;19.60;70.70;;;;;;5090085;28;20598;-76
2022/10/29 09:51:34;;;;;;;10.65;5.22;;;19.70;70.20;;;;;;5051740;28;20202;-76
2022/10/29 09:54:04;;;;;;;9.68;5.57;;;19.70;70.00;;;;;;5053598;28;20199;-76
2022/10/29 09:56:32;;;;;;;13.18;7.10;;;19.80;69.90;;;;;;5041394;28;20272;-78
2022/10/29 09:59:11;;;;;;;17.45;7.10;;;19.90;69.00;;;;;;5059045;28;20190;-75
2022/10/29 10:01:40;;;;;;;11.10;6.45;;;19.90;68.30;;;;;;5049965;28;20194;-75
2022/10/29 10:04:19;;;;;;;10.18;5.88;;;20.00;68.60;;;;;;5057571;28;20207;-77
2022/10/29 10:07:09;;;;;;;13.82;6.95;;;20.10;68.30;;;;;;5054996;28;20195;-76
2022/10/29 10:09:52;;;;;;;14.07;6.45;;;20.10;68.40;;;;;;5051780;28;20469;-76
2022/10/29 10:12:24;;;;;;;11.77;6.38;;;20.20;67.80;;;;;;5051673;28;20252;-75
2022/10/29 10:15:07;;;;;;;12.23;5.60;;;20.30;68.10;;;;;;5050472;28;20610;-77
2022/10/29 10:17:57;;;;;;;10.75;6.25;;;20.40;67.40;;;;;;5047229;28;20215;-77
2022/10/29 10:20:30;;;;;;;9.88;6.20;;;20.40;67.40;;;;;;5057469;28;20199;-75
2022/10/29 10:23:00;;;;;;;10.95;5.85;;;20.50;67.00;;;;;;5049866;28;20187;-75
2022/10/29 10:25:33;;;;;;;9.60;5.85;;;20.60;67.10;;;;;;5051075;28;20715;-77
2022/10/29 10:28:05;;;;;;;11.05;5.80;;;20.60;66.70;;;;;;5046970;28;20704;-75
2022/10/29 10:30:33;;;;;;;14.60;6.25;;;20.70;66.70;;;;;;5057978;28;20241;-77
2022/10/29 10:33:21;;;;;;;11.68;6.25;;;20.80;67.10;;;;;;5053243;28;20195;-75
2022/10/29 10:35:55;;;;;;;13.32;6.70;;;20.80;66.10;;;;;;5051585;28;20967;-76
2022/10/29 10:38:26;;;;;;;10.40;5.72;;;20.80;66.10;;;;;;5050929;28;20242;-77
2022/10/29 10:40:56;;;;;;;8.77;5.30;;;20.90;65.40;;;;;;5049311;28;20369;-76
2022/10/29 10:43:26;;;;;;;9.27;4.28;;;21.00;65.20;;;;;;5055305;28;20904;-76
2022/10/29 10:45:57;;;;;;;8.55;4.55;;;21.00;64.70;;;;;;5062548;28;20242;-76
2022/10/29 10:48:27;;;;;;;9.55;5.28;;;21.10;65.10;;;;;;5052724;28;20647;-76
2022/10/29 10:51:20;;;;;;;8.60;4.70;;;21.10;64.70;;;;;;5052588;28;20837;-78
2022/10/29 10:53:50;;;;;;;11.88;4.85;;;21.20;63.90;;;;;;5062915;28;20661;-76
2022/10/29 10:56:21;;;;;;;8.77;4.63;;;21.30;64.40;;;;;;5054068;28;20250;-77
2022/10/29 10:58:58;;;;;;;14.10;5.30;;;21.40;64.60;;;;;;5057836;28;20195;-77
2022/10/29 11:01:31;;;;;;;9.70;4.75;;;21.40;63.50;;;;;;5040693;28;20240;-75
2022/10/29 11:04:08;;;;;;;8.15;4.25;;;21.50;63.10;;;;;;5070672;28;20186;-75
2022/10/29 11:06:40;;;;;;;7.40;3.97;;;21.50;63.30;;;;;;5068516;28;20217;-76
2022/10/29 11:09:18;;;;;;;8.88;4.15;;;21.60;63.40;;;;;;5052744;28;20244;-76
2022/10/29 11:11:54;;;;;;;10.90;4.20;;;21.70;62.80;;;;;;5053412;28;20691;-77
2022/10/29 11:14:31;;;;;;;11.18;4.30;;;21.70;62.70;;;;;;5051601;28;20217;-76
2022/10/29 11:17:02;;;;;;;15.90;4.45;;;21.80;62.60;;;;;;5052327;28;20195;-76
2022/10/29 11:19:35;;;;;;;14.02;4.22;;;21.80;62.70;;;;;;5053340;28;20194;-76
2022/10/29 11:22:12;;;;;;;7.53;4.38;;;21.90;62.90;;;;;;5053112;28;20540;-75
2022/10/29 11:24:48;;;;;;;8.18;3.72;;;22.00;62.90;;;;;;5066579;28;20654;-78
2022/10/29 11:27:34;;;;;;;9.43;3.83;;;22.00;62.00;;;;;;5055203;28;20210;-76
2022/10/29 11:30:06;;;;;;;8.98;3.10;;;22.10;61.30;;;;;;5053326;28;20652;-77
2022/10/29 11:32:46;;;;;;;14.02;4.32;;;22.20;61.60;;;;;;5051286;28;20256;-76
2022/10/29 11:35:18;;;;;;;9.93;2.65;;;22.20;60.40;;;;;;5042157;28;20592;-75
2022/10/29 11:37:55;;;;;;;6.78;2.78;;;22.20;59.60;;;;;;5052929;28;21059;-78
2022/10/29 11:40:35;;;;;;;5.85;2.75;;;22.30;59.20;;;;;;5050933;28;20206;-76
2022/10/29 11:43:09;;;;;;;10.93;3.30;;;22.30;59.20;;;;;;5062617;28;20209;-77
2022/10/29 11:45:49;;;;;;;7.60;2.97;;;22.40;59.50;;;;;;5060733;28;20227;-78
2022/10/29 11:48:25;;;;;;;6.60;3.30;;;22.40;59.50;;;;;;5059371;28;20303;-76
2022/10/29 11:50:59;;;;;;;11.23;3.47;;;22.50;59.20;;;;;;5044993;28;20224;-79
2022/10/29 11:53:52;;;;;;;9.70;2.95;;;22.50;59.00;;;;;;5055671;28;20218;-76
2022/10/29 11:56:34;;;;;;;9.27;3.00;;;22.60;59.40;;;;;;5054731;28;20195;-77
2022/10/29 11:59:10;;;;;;;7.63;3.53;;;22.60;59.30;;;;;;5049848;28;20183;-78
2022/10/29 12:01:46;;;;;;;10.63;4.30;;;22.70;59.40;;;;;;5054722;28;20274;-78
2022/10/29 12:04:24;;;;;;;7.93;3.58;;;22.70;58.80;;;;;;5052121;28;20201;-75
2022/10/29 12:07:18;;;;;;;6.18;3.33;;;22.70;58.10;;;;;;5050758;28;20210;-76
2022/10/29 12:10:17;;;;;;;9.48;3.42;;;22.80;58.50;;;;;;5040549;28;20281;-75
2022/10/29 12:12:53;;;;;;;8.40;3.72;;;22.80;58.60;;;;;;5053186;28;20190;-77
2022/10/29 12:15:26;;;;;;;9.02;3.40;;;22.90;58.30;;;;;;5058388;28;20714;-75
2022/10/29 12:18:04;;;;;;;10.45;3.85;;;22.90;58.50;;;;;;5050027;28;20663;-75
2022/10/29 12:20:40;;;;;;;9.63;3.53;;;23.00;58.40;;;;;;5057853;28;20218;-75
2022/10/29 12:23:24;;;;;;;11.20;3.65;;;23.00;58.40;;;;;;5047060;28;20198;-78
2022/10/29 12:26:03;;;;;;;9.82;3.97;;;23.10;58.40;;;;;;5048496;28;20191;-75
2022/10/29 12:28:41;;;;;;;8.27;4.10;;;23.10;57.70;;;;;;5046215;28;20211;-77
2022/10/29 12:31:30;;;;;;;9.30;3.60;;;23.10;57.70;;;;;;5047498;28;20236;-74
2022/10/29 12:34:05;;;;;;;8.23;3.60;;;23.20;57.40;;;;;;5055063;28;20195;-75
2022/10/29 12:36:40;;;;;;;10.02;3.80;;;23.20;57.50;;;;;;5052678;28;20244;-75
2022/10/29 12:39:15;;;;;;;10.23;4.00;;;23.20;57.80;;;;;;5050465;28;20607;-77
2022/10/29 12:41:47;;;;;;;7.22;3.90;;;23.30;57.50;;;;;;5051208;28;20226;-78
2022/10/29 12:44:25;;;;;;;8.88;3.78;;;23.30;56.80;;;;;;5052479;28;20191;-78
2022/10/29 12:47:01;;;;;;;10.25;3.75;;;23.30;57.20;;;;;;5052332;28;20253;-76
2022/10/29 12:49:46;;;;;;;12.45;3.72;;;23.40;57.60;;;;;;5049899;28;20257;-80
2022/10/29 12:52:19;;;;;;;10.55;3.75;;;23.40;57.60;;;;;;5046568;28;20661;-78
2022/10/29 12:54:50;;;;;;;11.70;3.55;;;23.50;57.70;;;;;;5050160;28;20636;-77
2022/10/29 12:57:30;;;;;;;8.45;3.97;;;23.60;57.90;;;;;;5047760;28;20915;-78